sensor_id;sensor_type;location;lat;lon;timestamp;P1;durP1;ratioP1;P2;durP2;ratioP2
12141;SDS011;6134;59.284;18.022;2022-07-29T00:01:41;5.18;;;4.10;;
12141;SDS011;6134;59.284;18.022;2022-07-29T00:04:10;3.88;;;3.20;;
12141;SDS011;6134;59.284;18.022;2022-07-29T00:06:39;5.15;;;3.08;;
12141;SDS011;6134;59.284;18.022;2022-07-29T00:09:08;7.93;;;5.55;;
12141;SDS011;6134;59.284;18.022;2022-07-29T00:11:36;4.45;;;4.05;;
12141;SDS011;6134;59.284;18.022;2022-07-29T00:14:05;5.88;;;3.72;;
12141;SDS011;6134;59.284;18.022;2022-07-29T00:16:35;4.00;;;3.50;;
12141;SDS011;6134;59.284;18.022;2022-07-29T00:19:04;3.67;;;3.30;;
12141;SDS011;6134;59.284;18.022;2022-07-29T00:21:33;2.78;;;2.58;;
12141;SDS011;6134;59.284;18.022;2022-07-29T00:24:01;4.95;;;2.67;;
12141;SDS011;6134;59.284;18.022;2022-07-29T00:26:30;3.00;;;2.67;;
12141;SDS011;6134;59.284;18.022;2022-07-29T00:28:59;3.08;;;2.50;;
12141;SDS011;6134;59.284;18.022;2022-07-29T00:31:49;2.58;;;2.08;;
12141;SDS011;6134;59.284;18.022;2022-07-29T00:34:18;2.75;;;2.20;;
12141;SDS011;6134;59.284;18.022;2022-07-29T00:37:04;2.13;;;1.90;;
12141;SDS011;6134;59.284;18.022;2022-07-29T00:39:33;3.38;;;1.90;;
12141;SDS011;6134;59.284;18.022;2022-07-29T00:42:02;1.92;;;1.70;;
12141;SDS011;6134;59.284;18.022;2022-07-29T00:44:30;2.90;;;1.60;;
12141;SDS011;6134;59.284;18.022;2022-07-29T00:47:00;2.85;;;1.58;;
12141;SDS011;6134;59.284;18.022;2022-07-29T00:49:29;1.90;;;1.00;;
12141;SDS011;6134;59.284;18.022;2022-07-29T00:51:58;1.40;;;1.20;;
12141;SDS011;6134;59.284;18.022;2022-07-29T00:54:26;3.30;;;1.20;;
12141;SDS011;6134;59.284;18.022;2022-07-29T00:56:55;0.98;;;0.98;;
12141;SDS011;6134;59.284;18.022;2022-07-29T00:59:24;1.90;;;1.13;;
12141;SDS011;6134;59.284;18.022;2022-07-29T01:02:01;1.08;;;0.93;;
12141;SDS011;6134;59.284;18.022;2022-07-29T01:04:30;1.10;;;1.00;;
12141;SDS011;6134;59.284;18.022;2022-07-29T01:06:59;1.35;;;1.00;;
12141;SDS011;6134;59.284;18.022;2022-07-29T01:09:28;1.27;;;1.17;;
12141;SDS011;6134;59.284;18.022;2022-07-29T01:12:10;1.35;;;0.80;;
12141;SDS011;6134;59.284;18.022;2022-07-29T01:14:39;2.30;;;0.88;;
12141;SDS011;6134;59.284;18.022;2022-07-29T01:17:10;1.08;;;1.00;;
12141;SDS011;6134;59.284;18.022;2022-07-29T01:19:45;2.17;;;1.02;;
12141;SDS011;6134;59.284;18.022;2022-07-29T01:22:21;1.70;;;0.80;;
12141;SDS011;6134;59.284;18.022;2022-07-29T01:25:05;2.15;;;1.15;;
12141;SDS011;6134;59.284;18.022;2022-07-29T01:27:38;1.50;;;0.90;;
12141;SDS011;6134;59.284;18.022;2022-07-29T01:30:11;0.80;;;0.70;;
12141;SDS011;6134;59.284;18.022;2022-07-29T01:32:40;1.17;;;0.82;;
12141;SDS011;6134;59.284;18.022;2022-07-29T01:35:14;1.85;;;1.10;;
12141;SDS011;6134;59.284;18.022;2022-07-29T01:37:45;1.15;;;0.75;;
12141;SDS011;6134;59.284;18.022;2022-07-29T01:40:18;1.42;;;0.80;;
12141;SDS011;6134;59.284;18.022;2022-07-29T01:42:49;0.82;;;0.80;;
12141;SDS011;6134;59.284;18.022;2022-07-29T01:45:21;1.33;;;0.70;;
12141;SDS011;6134;59.284;18.022;2022-07-29T01:47:52;1.95;;;0.68;;
12141;SDS011;6134;59.284;18.022;2022-07-29T01:50:23;0.80;;;0.80;;
12141;SDS011;6134;59.284;18.022;2022-07-29T01:52:56;1.48;;;0.82;;
12141;SDS011;6134;59.284;18.022;2022-07-29T01:55:25;0.70;;;0.70;;
12141;SDS011;6134;59.284;18.022;2022-07-29T01:57:56;1.10;;;0.80;;
12141;SDS011;6134;59.284;18.022;2022-07-29T02:00:26;0.82;;;0.80;;
12141;SDS011;6134;59.284;18.022;2022-07-29T02:02:55;0.93;;;0.73;;
12141;SDS011;6134;59.284;18.022;2022-07-29T02:05:25;3.00;;;0.70;;
12141;SDS011;6134;59.284;18.022;2022-07-29T02:07:55;1.70;;;1.00;;
12141;SDS011;6134;59.284;18.022;2022-07-29T02:10:25;1.02;;;0.70;;
12141;SDS011;6134;59.284;18.022;2022-07-29T02:12:54;0.80;;;0.80;;
12141;SDS011;6134;59.284;18.022;2022-07-29T02:15:24;1.00;;;0.90;;
12141;SDS011;6134;59.284;18.022;2022-07-29T02:17:56;1.35;;;0.80;;
12141;SDS011;6134;59.284;18.022;2022-07-29T02:20:25;2.00;;;0.90;;
12141;SDS011;6134;59.284;18.022;2022-07-29T02:22:54;1.20;;;0.85;;
12141;SDS011;6134;59.284;18.022;2022-07-29T02:25:23;2.25;;;1.00;;
12141;SDS011;6134;59.284;18.022;2022-07-29T02:28:03;1.63;;;0.90;;
12141;SDS011;6134;59.284;18.022;2022-07-29T02:30:32;1.20;;;1.10;;
12141;SDS011;6134;59.284;18.022;2022-07-29T02:33:02;1.35;;;0.90;;
12141;SDS011;6134;59.284;18.022;2022-07-29T02:35:31;1.40;;;0.82;;
12141;SDS011;6134;59.284;18.022;2022-07-29T02:38:00;0.90;;;0.80;;
12141;SDS011;6134;59.284;18.022;2022-07-29T02:40:47;1.30;;;1.17;;
12141;SDS011;6134;59.284;18.022;2022-07-29T02:43:16;3.00;;;1.10;;
12141;SDS011;6134;59.284;18.022;2022-07-29T02:45:45;1.38;;;0.95;;
12141;SDS011;6134;59.284;18.022;2022-07-29T02:48:18;1.10;;;1.00;;
12141;SDS011;6134;59.284;18.022;2022-07-29T02:50:49;1.05;;;0.90;;
12141;SDS011;6134;59.284;18.022;2022-07-29T02:53:18;0.95;;;0.90;;
12141;SDS011;6134;59.284;18.022;2022-07-29T02:55:49;1.20;;;1.02;;
12141;SDS011;6134;59.284;18.022;2022-07-29T02:58:21;1.48;;;1.00;;
12141;SDS011;6134;59.284;18.022;2022-07-29T03:00:55;2.88;;;1.05;;
12141;SDS011;6134;59.284;18.022;2022-07-29T03:03:27;1.25;;;1.08;;
12141;SDS011;6134;59.284;18.022;2022-07-29T03:05:56;1.10;;;1.00;;
12141;SDS011;6134;59.284;18.022;2022-07-29T03:08:26;1.08;;;0.80;;
12141;SDS011;6134;59.284;18.022;2022-07-29T03:10:54;1.15;;;0.98;;
12141;SDS011;6134;59.284;18.022;2022-07-29T03:13:23;1.27;;;0.70;;
12141;SDS011;6134;59.284;18.022;2022-07-29T03:15:52;1.38;;;1.00;;
12141;SDS011;6134;59.284;18.022;2022-07-29T03:18:20;0.88;;;0.88;;
12141;SDS011;6134;59.284;18.022;2022-07-29T03:20:51;2.05;;;1.00;;
12141;SDS011;6134;59.284;18.022;2022-07-29T03:23:19;2.45;;;1.20;;
12141;SDS011;6134;59.284;18.022;2022-07-29T03:25:49;2.03;;;1.02;;
12141;SDS011;6134;59.284;18.022;2022-07-29T03:28:17;1.65;;;1.10;;
12141;SDS011;6134;59.284;18.022;2022-07-29T03:30:47;1.05;;;0.93;;
12141;SDS011;6134;59.284;18.022;2022-07-29T03:33:16;0.98;;;0.90;;
12141;SDS011;6134;59.284;18.022;2022-07-29T03:35:44;1.50;;;0.93;;
12141;SDS011;6134;59.284;18.022;2022-07-29T03:38:14;2.13;;;1.00;;
12141;SDS011;6134;59.284;18.022;2022-07-29T03:40:44;2.42;;;1.23;;
12141;SDS011;6134;59.284;18.022;2022-07-29T03:43:14;1.40;;;1.10;;
12141;SDS011;6134;59.284;18.022;2022-07-29T03:45:44;2.08;;;1.00;;
12141;SDS011;6134;59.284;18.022;2022-07-29T03:48:14;1.85;;;1.20;;
12141;SDS011;6134;59.284;18.022;2022-07-29T03:50:43;1.73;;;1.10;;
12141;SDS011;6134;59.284;18.022;2022-07-29T03:53:12;2.92;;;1.00;;
12141;SDS011;6134;59.284;18.022;2022-07-29T03:55:45;2.20;;;1.25;;
12141;SDS011;6134;59.284;18.022;2022-07-29T03:58:14;1.20;;;1.10;;
12141;SDS011;6134;59.284;18.022;2022-07-29T04:00:42;1.13;;;1.02;;
12141;SDS011;6134;59.284;18.022;2022-07-29T04:03:12;2.35;;;1.10;;
12141;SDS011;6134;59.284;18.022;2022-07-29T04:05:41;2.08;;;1.10;;
12141;SDS011;6134;59.284;18.022;2022-07-29T04:08:09;3.35;;;1.17;;
12141;SDS011;6134;59.284;18.022;2022-07-29T04:10:38;2.45;;;1.20;;
12141;SDS011;6134;59.284;18.022;2022-07-29T04:13:08;1.52;;;1.05;;
12141;SDS011;6134;59.284;18.022;2022-07-29T04:15:36;3.33;;;1.40;;
12141;SDS011;6134;59.284;18.022;2022-07-29T04:18:05;2.72;;;1.00;;
12141;SDS011;6134;59.284;18.022;2022-07-29T04:20:33;1.10;;;1.00;;
12141;SDS011;6134;59.284;18.022;2022-07-29T04:23:02;5.95;;;1.40;;
12141;SDS011;6134;59.284;18.022;2022-07-29T04:25:30;0.98;;;0.85;;
12141;SDS011;6134;59.284;18.022;2022-07-29T04:27:59;1.05;;;0.90;;
12141;SDS011;6134;59.284;18.022;2022-07-29T04:30:29;0.80;;;0.80;;
12141;SDS011;6134;59.284;18.022;2022-07-29T04:32:58;1.55;;;0.80;;
12141;SDS011;6134;59.284;18.022;2022-07-29T04:35:27;1.02;;;0.90;;
12141;SDS011;6134;59.284;18.022;2022-07-29T04:38:03;0.70;;;0.70;;
12141;SDS011;6134;59.284;18.022;2022-07-29T04:40:40;0.82;;;0.82;;
12141;SDS011;6134;59.284;18.022;2022-07-29T04:43:09;1.73;;;1.08;;
12141;SDS011;6134;59.284;18.022;2022-07-29T04:45:42;1.00;;;0.90;;
12141;SDS011;6134;59.284;18.022;2022-07-29T04:48:10;3.13;;;1.10;;
12141;SDS011;6134;59.284;18.022;2022-07-29T04:50:39;1.02;;;0.85;;
12141;SDS011;6134;59.284;18.022;2022-07-29T04:53:07;1.17;;;0.75;;
12141;SDS011;6134;59.284;18.022;2022-07-29T04:55:36;2.55;;;0.80;;
12141;SDS011;6134;59.284;18.022;2022-07-29T04:58:04;1.33;;;0.80;;
12141;SDS011;6134;59.284;18.022;2022-07-29T05:00:33;2.25;;;1.10;;
12141;SDS011;6134;59.284;18.022;2022-07-29T05:03:03;1.63;;;0.90;;
12141;SDS011;6134;59.284;18.022;2022-07-29T05:05:32;1.65;;;0.77;;
12141;SDS011;6134;59.284;18.022;2022-07-29T05:08:00;0.77;;;0.77;;
12141;SDS011;6134;59.284;18.022;2022-07-29T05:10:29;1.33;;;0.95;;
12141;SDS011;6134;59.284;18.022;2022-07-29T05:12:57;1.05;;;0.80;;
12141;SDS011;6134;59.284;18.022;2022-07-29T05:15:26;1.30;;;0.90;;
12141;SDS011;6134;59.284;18.022;2022-07-29T05:17:54;0.88;;;0.68;;
12141;SDS011;6134;59.284;18.022;2022-07-29T05:20:24;1.00;;;0.90;;
12141;SDS011;6134;59.284;18.022;2022-07-29T05:22:54;4.03;;;0.80;;
12141;SDS011;6134;59.284;18.022;2022-07-29T05:25:23;2.75;;;0.95;;
12141;SDS011;6134;59.284;18.022;2022-07-29T05:28:09;1.60;;;0.90;;
12141;SDS011;6134;59.284;18.022;2022-07-29T05:30:38;2.58;;;1.00;;
12141;SDS011;6134;59.284;18.022;2022-07-29T05:33:06;2.78;;;1.00;;
12141;SDS011;6134;59.284;18.022;2022-07-29T05:35:56;1.48;;;0.70;;
12141;SDS011;6134;59.284;18.022;2022-07-29T05:38:26;0.95;;;0.88;;
12141;SDS011;6134;59.284;18.022;2022-07-29T05:40:56;2.05;;;1.00;;
12141;SDS011;6134;59.284;18.022;2022-07-29T05:43:25;1.33;;;0.80;;
12141;SDS011;6134;59.284;18.022;2022-07-29T05:45:53;2.35;;;0.80;;
12141;SDS011;6134;59.284;18.022;2022-07-29T05:48:22;2.88;;;0.85;;
12141;SDS011;6134;59.284;18.022;2022-07-29T05:50:50;4.30;;;0.95;;
12141;SDS011;6134;59.284;18.022;2022-07-29T05:53:20;1.10;;;0.90;;
12141;SDS011;6134;59.284;18.022;2022-07-29T05:55:49;1.65;;;0.82;;
12141;SDS011;6134;59.284;18.022;2022-07-29T05:58:18;3.47;;;0.93;;
12141;SDS011;6134;59.284;18.022;2022-07-29T06:00:46;2.20;;;1.05;;
12141;SDS011;6134;59.284;18.022;2022-07-29T06:03:15;1.35;;;0.80;;
12141;SDS011;6134;59.284;18.022;2022-07-29T06:05:44;2.40;;;0.90;;
12141;SDS011;6134;59.284;18.022;2022-07-29T06:08:12;2.10;;;0.93;;
12141;SDS011;6134;59.284;18.022;2022-07-29T06:10:42;3.78;;;0.80;;
12141;SDS011;6134;59.284;18.022;2022-07-29T06:13:11;0.98;;;0.73;;
12141;SDS011;6134;59.284;18.022;2022-07-29T06:15:42;1.75;;;0.80;;
12141;SDS011;6134;59.284;18.022;2022-07-29T06:18:11;1.17;;;0.70;;
12141;SDS011;6134;59.284;18.022;2022-07-29T06:20:40;1.42;;;0.90;;
12141;SDS011;6134;59.284;18.022;2022-07-29T06:23:08;1.67;;;0.90;;
12141;SDS011;6134;59.284;18.022;2022-07-29T06:25:37;1.38;;;0.68;;
12141;SDS011;6134;59.284;18.022;2022-07-29T06:28:08;1.30;;;0.70;;
12141;SDS011;6134;59.284;18.022;2022-07-29T06:30:37;1.77;;;0.63;;
12141;SDS011;6134;59.284;18.022;2022-07-29T06:33:05;1.85;;;0.60;;
12141;SDS011;6134;59.284;18.022;2022-07-29T06:35:34;1.67;;;0.80;;
12141;SDS011;6134;59.284;18.022;2022-07-29T06:38:07;1.48;;;0.85;;
12141;SDS011;6134;59.284;18.022;2022-07-29T06:40:57;0.63;;;0.63;;
12141;SDS011;6134;59.284;18.022;2022-07-29T06:43:31;1.52;;;0.57;;
12141;SDS011;6134;59.284;18.022;2022-07-29T06:46:18;0.70;;;0.70;;
12141;SDS011;6134;59.284;18.022;2022-07-29T06:48:47;3.88;;;0.80;;
12141;SDS011;6134;59.284;18.022;2022-07-29T06:51:16;2.22;;;0.90;;
12141;SDS011;6134;59.284;18.022;2022-07-29T06:53:48;0.75;;;0.63;;
12141;SDS011;6134;59.284;18.022;2022-07-29T06:56:28;1.10;;;0.77;;
12141;SDS011;6134;59.284;18.022;2022-07-29T06:58:58;0.50;;;0.50;;
12141;SDS011;6134;59.284;18.022;2022-07-29T07:01:26;2.97;;;0.90;;
12141;SDS011;6134;59.284;18.022;2022-07-29T07:03:55;0.60;;;0.60;;
12141;SDS011;6134;59.284;18.022;2022-07-29T07:06:23;0.80;;;0.60;;
12141;SDS011;6134;59.284;18.022;2022-07-29T07:08:52;0.50;;;0.50;;
12141;SDS011;6134;59.284;18.022;2022-07-29T07:11:20;0.60;;;0.60;;
12141;SDS011;6134;59.284;18.022;2022-07-29T07:13:49;0.95;;;0.60;;
12141;SDS011;6134;59.284;18.022;2022-07-29T07:16:19;0.70;;;0.70;;
12141;SDS011;6134;59.284;18.022;2022-07-29T07:18:47;0.57;;;0.57;;
12141;SDS011;6134;59.284;18.022;2022-07-29T07:21:16;0.60;;;0.60;;
12141;SDS011;6134;59.284;18.022;2022-07-29T07:23:45;0.50;;;0.50;;
12141;SDS011;6134;59.284;18.022;2022-07-29T07:26:13;0.77;;;0.60;;
12141;SDS011;6134;59.284;18.022;2022-07-29T07:28:42;2.70;;;0.85;;
12141;SDS011;6134;59.284;18.022;2022-07-29T07:31:10;2.83;;;0.70;;
12141;SDS011;6134;59.284;18.022;2022-07-29T07:33:40;0.93;;;0.60;;
12141;SDS011;6134;59.284;18.022;2022-07-29T07:36:08;0.80;;;0.60;;
12141;SDS011;6134;59.284;18.022;2022-07-29T07:38:37;1.23;;;0.60;;
12141;SDS011;6134;59.284;18.022;2022-07-29T07:41:05;0.60;;;0.52;;
12141;SDS011;6134;59.284;18.022;2022-07-29T07:43:34;0.70;;;0.63;;
12141;SDS011;6134;59.284;18.022;2022-07-29T07:46:02;0.63;;;0.60;;
12141;SDS011;6134;59.284;18.022;2022-07-29T07:48:31;1.83;;;0.60;;
12141;SDS011;6134;59.284;18.022;2022-07-29T07:51:02;0.75;;;0.70;;
12141;SDS011;6134;59.284;18.022;2022-07-29T07:53:31;0.50;;;0.50;;
12141;SDS011;6134;59.284;18.022;2022-07-29T07:55:59;0.57;;;0.57;;
12141;SDS011;6134;59.284;18.022;2022-07-29T07:58:38;0.68;;;0.57;;
12141;SDS011;6134;59.284;18.022;2022-07-29T08:01:06;0.60;;;0.60;;
12141;SDS011;6134;59.284;18.022;2022-07-29T08:03:35;0.60;;;0.60;;
12141;SDS011;6134;59.284;18.022;2022-07-29T08:06:05;1.10;;;0.60;;
12141;SDS011;6134;59.284;18.022;2022-07-29T08:08:33;1.35;;;0.63;;
12141;SDS011;6134;59.284;18.022;2022-07-29T08:11:02;1.55;;;0.70;;
12141;SDS011;6134;59.284;18.022;2022-07-29T08:13:35;1.15;;;0.55;;
12141;SDS011;6134;59.284;18.022;2022-07-29T08:16:04;0.50;;;0.50;;
12141;SDS011;6134;59.284;18.022;2022-07-29T08:18:39;5.60;;;1.27;;
12141;SDS011;6134;59.284;18.022;2022-07-29T08:21:09;1.73;;;0.60;;
12141;SDS011;6134;59.284;18.022;2022-07-29T08:23:40;0.63;;;0.50;;
12141;SDS011;6134;59.284;18.022;2022-07-29T08:26:24;1.17;;;0.52;;
12141;SDS011;6134;59.284;18.022;2022-07-29T08:28:52;0.75;;;0.75;;
12141;SDS011;6134;59.284;18.022;2022-07-29T08:31:21;0.70;;;0.60;;
12141;SDS011;6134;59.284;18.022;2022-07-29T08:33:49;0.50;;;0.50;;
12141;SDS011;6134;59.284;18.022;2022-07-29T08:36:19;0.80;;;0.50;;
12141;SDS011;6134;59.284;18.022;2022-07-29T08:38:48;0.93;;;0.60;;
12141;SDS011;6134;59.284;18.022;2022-07-29T08:41:17;0.50;;;0.50;;
12141;SDS011;6134;59.284;18.022;2022-07-29T08:43:46;1.13;;;0.60;;
12141;SDS011;6134;59.284;18.022;2022-07-29T08:46:15;0.90;;;0.60;;
12141;SDS011;6134;59.284;18.022;2022-07-29T08:48:44;0.68;;;0.60;;
12141;SDS011;6134;59.284;18.022;2022-07-29T08:51:13;0.93;;;0.60;;
12141;SDS011;6134;59.284;18.022;2022-07-29T08:53:44;0.55;;;0.55;;
12141;SDS011;6134;59.284;18.022;2022-07-29T08:56:14;2.17;;;0.60;;
12141;SDS011;6134;59.284;18.022;2022-07-29T08:58:44;0.50;;;0.50;;
12141;SDS011;6134;59.284;18.022;2022-07-29T09:01:20;0.63;;;0.60;;
12141;SDS011;6134;59.284;18.022;2022-07-29T09:04:10;0.57;;;0.57;;
12141;SDS011;6134;59.284;18.022;2022-07-29T09:06:39;0.70;;;0.70;;
12141;SDS011;6134;59.284;18.022;2022-07-29T09:09:11;0.60;;;0.60;;
12141;SDS011;6134;59.284;18.022;2022-07-29T09:11:41;0.63;;;0.63;;
12141;SDS011;6134;59.284;18.022;2022-07-29T09:14:11;1.25;;;0.52;;
12141;SDS011;6134;59.284;18.022;2022-07-29T09:19:30;1.30;;;0.60;;
12141;SDS011;6134;59.284;18.022;2022-07-29T09:22:00;2.00;;;0.60;;
12141;SDS011;6134;59.284;18.022;2022-07-29T09:24:38;0.70;;;0.70;;
12141;SDS011;6134;59.284;18.022;2022-07-29T09:27:10;1.02;;;0.60;;
12141;SDS011;6134;59.284;18.022;2022-07-29T09:29:39;0.50;;;0.50;;
12141;SDS011;6134;59.284;18.022;2022-07-29T09:32:09;0.60;;;0.60;;
12141;SDS011;6134;59.284;18.022;2022-07-29T09:34:37;3.50;;;0.90;;
12141;SDS011;6134;59.284;18.022;2022-07-29T09:37:06;0.60;;;0.60;;
12141;SDS011;6134;59.284;18.022;2022-07-29T09:39:36;0.80;;;0.50;;
12141;SDS011;6134;59.284;18.022;2022-07-29T09:42:12;0.73;;;0.60;;
12141;SDS011;6134;59.284;18.022;2022-07-29T09:44:42;0.70;;;0.70;;
12141;SDS011;6134;59.284;18.022;2022-07-29T09:47:11;1.10;;;0.60;;
12141;SDS011;6134;59.284;18.022;2022-07-29T09:49:50;0.60;;;0.60;;
12141;SDS011;6134;59.284;18.022;2022-07-29T09:52:19;0.60;;;0.60;;
12141;SDS011;6134;59.284;18.022;2022-07-29T09:54:48;0.60;;;0.60;;
12141;SDS011;6134;59.284;18.022;2022-07-29T09:57:25;0.60;;;0.60;;
12141;SDS011;6134;59.284;18.022;2022-07-29T09:59:57;0.65;;;0.65;;
12141;SDS011;6134;59.284;18.022;2022-07-29T10:02:29;0.70;;;0.70;;
12141;SDS011;6134;59.284;18.022;2022-07-29T10:04:58;1.15;;;0.70;;
12141;SDS011;6134;59.284;18.022;2022-07-29T10:07:28;0.80;;;0.80;;
12141;SDS011;6134;59.284;18.022;2022-07-29T10:10:21;0.73;;;0.60;;
12141;SDS011;6134;59.284;18.022;2022-07-29T10:12:53;1.27;;;0.60;;
12141;SDS011;6134;59.284;18.022;2022-07-29T10:15:22;0.60;;;0.60;;
12141;SDS011;6134;59.284;18.022;2022-07-29T10:17:51;0.77;;;0.75;;
12141;SDS011;6134;59.284;18.022;2022-07-29T10:20:20;0.70;;;0.70;;
12141;SDS011;6134;59.284;18.022;2022-07-29T10:22:49;1.75;;;0.70;;
12141;SDS011;6134;59.284;18.022;2022-07-29T10:25:19;0.75;;;0.50;;
12141;SDS011;6134;59.284;18.022;2022-07-29T10:27:48;0.93;;;0.70;;
12141;SDS011;6134;59.284;18.022;2022-07-29T10:30:20;0.65;;;0.60;;
12141;SDS011;6134;59.284;18.022;2022-07-29T10:32:58;3.33;;;0.60;;
12141;SDS011;6134;59.284;18.022;2022-07-29T10:35:38;0.57;;;0.57;;
12141;SDS011;6134;59.284;18.022;2022-07-29T10:40:57;0.63;;;0.63;;
12141;SDS011;6134;59.284;18.022;2022-07-29T10:43:46;0.98;;;0.80;;
12141;SDS011;6134;59.284;18.022;2022-07-29T10:46:18;0.60;;;0.60;;
12141;SDS011;6134;59.284;18.022;2022-07-29T10:49:10;0.63;;;0.63;;
12141;SDS011;6134;59.284;18.022;2022-07-29T10:52:00;1.15;;;0.77;;
12141;SDS011;6134;59.284;18.022;2022-07-29T10:57:28;0.60;;;0.60;;
12141;SDS011;6134;59.284;18.022;2022-07-29T11:00:28;0.60;;;0.60;;
12141;SDS011;6134;59.284;18.022;2022-07-29T11:02:58;0.70;;;0.60;;
12141;SDS011;6134;59.284;18.022;2022-07-29T11:05:51;0.70;;;0.70;;
12141;SDS011;6134;59.284;18.022;2022-07-29T11:08:21;0.70;;;0.70;;
12141;SDS011;6134;59.284;18.022;2022-07-29T11:17:07;0.60;;;0.60;;
12141;SDS011;6134;59.284;18.022;2022-07-29T11:19:40;0.70;;;0.70;;
12141;SDS011;6134;59.284;18.022;2022-07-29T11:22:32;0.60;;;0.60;;
12141;SDS011;6134;59.284;18.022;2022-07-29T11:25:13;0.70;;;0.70;;
12141;SDS011;6134;59.284;18.022;2022-07-29T11:27:42;1.30;;;0.60;;
12141;SDS011;6134;59.284;18.022;2022-07-29T11:30:13;1.40;;;0.70;;
12141;SDS011;6134;59.284;18.022;2022-07-29T11:32:42;0.60;;;0.60;;
12141;SDS011;6134;59.284;18.022;2022-07-29T11:35:15;0.60;;;0.60;;
12141;SDS011;6134;59.284;18.022;2022-07-29T11:38:24;2.45;;;0.98;;
12141;SDS011;6134;59.284;18.022;2022-07-29T11:43:46;0.60;;;0.60;;
12141;SDS011;6134;59.284;18.022;2022-07-29T11:46:16;0.70;;;0.70;;
12141;SDS011;6134;59.284;18.022;2022-07-29T11:48:50;0.70;;;0.70;;
12141;SDS011;6134;59.284;18.022;2022-07-29T11:51:20;0.75;;;0.60;;
12141;SDS011;6134;59.284;18.022;2022-07-29T11:54:09;0.80;;;0.80;;
12141;SDS011;6134;59.284;18.022;2022-07-29T11:56:41;1.55;;;0.60;;
12141;SDS011;6134;59.284;18.022;2022-07-29T11:59:12;0.70;;;0.70;;
12141;SDS011;6134;59.284;18.022;2022-07-29T12:01:51;0.70;;;0.70;;
12141;SDS011;6134;59.284;18.022;2022-07-29T12:04:47;1.00;;;0.75;;
12141;SDS011;6134;59.284;18.022;2022-07-29T12:07:18;0.68;;;0.68;;
12141;SDS011;6134;59.284;18.022;2022-07-29T12:09:58;0.70;;;0.70;;
12141;SDS011;6134;59.284;18.022;2022-07-29T12:12:28;1.67;;;0.60;;
12141;SDS011;6134;59.284;18.022;2022-07-29T12:14:56;0.60;;;0.60;;
12141;SDS011;6134;59.284;18.022;2022-07-29T12:17:27;0.68;;;0.68;;
12141;SDS011;6134;59.284;18.022;2022-07-29T12:19:57;0.70;;;0.70;;
12141;SDS011;6134;59.284;18.022;2022-07-29T12:22:29;0.60;;;0.60;;
12141;SDS011;6134;59.284;18.022;2022-07-29T12:25:00;0.88;;;0.60;;
12141;SDS011;6134;59.284;18.022;2022-07-29T12:27:59;1.13;;;0.70;;
12141;SDS011;6134;59.284;18.022;2022-07-29T12:30:34;0.60;;;0.60;;
12141;SDS011;6134;59.284;18.022;2022-07-29T12:33:13;0.80;;;0.80;;
12141;SDS011;6134;59.284;18.022;2022-07-29T12:35:42;0.95;;;0.95;;
12141;SDS011;6134;59.284;18.022;2022-07-29T12:38:30;2.75;;;0.90;;
12141;SDS011;6134;59.284;18.022;2022-07-29T12:41:00;0.68;;;0.65;;
12141;SDS011;6134;59.284;18.022;2022-07-29T12:43:30;0.70;;;0.70;;
12141;SDS011;6134;59.284;18.022;2022-07-29T12:46:10;0.85;;;0.70;;
12141;SDS011;6134;59.284;18.022;2022-07-29T12:48:40;0.60;;;0.60;;
12141;SDS011;6134;59.284;18.022;2022-07-29T12:51:09;1.05;;;0.70;;
12141;SDS011;6134;59.284;18.022;2022-07-29T12:54:00;0.90;;;0.82;;
12141;SDS011;6134;59.284;18.022;2022-07-29T12:56:29;0.80;;;0.80;;
12141;SDS011;6134;59.284;18.022;2022-07-29T12:59:11;1.48;;;0.70;;
12141;SDS011;6134;59.284;18.022;2022-07-29T13:01:40;0.70;;;0.70;;
12141;SDS011;6134;59.284;18.022;2022-07-29T13:04:09;0.77;;;0.77;;
12141;SDS011;6134;59.284;18.022;2022-07-29T13:06:38;0.80;;;0.75;;
12141;SDS011;6134;59.284;18.022;2022-07-29T13:09:13;0.60;;;0.60;;
12141;SDS011;6134;59.284;18.022;2022-07-29T13:11:43;0.80;;;0.80;;
12141;SDS011;6134;59.284;18.022;2022-07-29T13:14:16;0.70;;;0.70;;
12141;SDS011;6134;59.284;18.022;2022-07-29T13:17:01;0.70;;;0.70;;
12141;SDS011;6134;59.284;18.022;2022-07-29T13:19:37;0.98;;;0.80;;
12141;SDS011;6134;59.284;18.022;2022-07-29T13:22:06;0.73;;;0.70;;
12141;SDS011;6134;59.284;18.022;2022-07-29T13:24:46;0.82;;;0.82;;
12141;SDS011;6134;59.284;18.022;2022-07-29T13:27:14;1.10;;;0.80;;
12141;SDS011;6134;59.284;18.022;2022-07-29T13:29:43;0.95;;;0.85;;
12141;SDS011;6134;59.284;18.022;2022-07-29T13:32:13;0.88;;;0.82;;
12141;SDS011;6134;59.284;18.022;2022-07-29T13:34:41;0.80;;;0.80;;
12141;SDS011;6134;59.284;18.022;2022-07-29T13:37:10;0.60;;;0.60;;
12141;SDS011;6134;59.284;18.022;2022-07-29T13:39:38;0.93;;;0.77;;
12141;SDS011;6134;59.284;18.022;2022-07-29T13:42:19;0.75;;;0.75;;
12141;SDS011;6134;59.284;18.022;2022-07-29T13:44:48;0.93;;;0.93;;
12141;SDS011;6134;59.284;18.022;2022-07-29T13:47:18;0.70;;;0.70;;
12141;SDS011;6134;59.284;18.022;2022-07-29T13:49:46;0.70;;;0.70;;
12141;SDS011;6134;59.284;18.022;2022-07-29T13:52:15;0.90;;;0.90;;
12141;SDS011;6134;59.284;18.022;2022-07-29T13:54:43;1.23;;;0.80;;
12141;SDS011;6134;59.284;18.022;2022-07-29T13:57:12;0.73;;;0.73;;
12141;SDS011;6134;59.284;18.022;2022-07-29T13:59:42;0.60;;;0.60;;
12141;SDS011;6134;59.284;18.022;2022-07-29T14:02:17;0.70;;;0.70;;
12141;SDS011;6134;59.284;18.022;2022-07-29T14:04:45;1.95;;;0.90;;
12141;SDS011;6134;59.284;18.022;2022-07-29T14:07:14;0.85;;;0.70;;
12141;SDS011;6134;59.284;18.022;2022-07-29T14:09:42;0.98;;;0.65;;
12141;SDS011;6134;59.284;18.022;2022-07-29T14:12:11;0.70;;;0.70;;
12141;SDS011;6134;59.284;18.022;2022-07-29T14:14:39;1.58;;;0.75;;
12141;SDS011;6134;59.284;18.022;2022-07-29T14:17:09;0.77;;;0.77;;
12141;SDS011;6134;59.284;18.022;2022-07-29T14:19:38;0.88;;;0.80;;
12141;SDS011;6134;59.284;18.022;2022-07-29T14:22:07;0.70;;;0.70;;
12141;SDS011;6134;59.284;18.022;2022-07-29T14:24:36;1.58;;;0.70;;
12141;SDS011;6134;59.284;18.022;2022-07-29T14:27:05;1.10;;;0.70;;
12141;SDS011;6134;59.284;18.022;2022-07-29T14:29:34;0.60;;;0.60;;
12141;SDS011;6134;59.284;18.022;2022-07-29T14:32:04;1.08;;;0.80;;
12141;SDS011;6134;59.284;18.022;2022-07-29T14:34:35;3.45;;;1.23;;
12141;SDS011;6134;59.284;18.022;2022-07-29T14:37:03;0.80;;;0.80;;
12141;SDS011;6134;59.284;18.022;2022-07-29T14:39:32;1.33;;;0.73;;
12141;SDS011;6134;59.284;18.022;2022-07-29T14:42:07;0.57;;;0.57;;
12141;SDS011;6134;59.284;18.022;2022-07-29T14:44:38;0.60;;;0.60;;
12141;SDS011;6134;59.284;18.022;2022-07-29T14:47:07;0.70;;;0.70;;
12141;SDS011;6134;59.284;18.022;2022-07-29T14:49:37;0.80;;;0.80;;
12141;SDS011;6134;59.284;18.022;2022-07-29T14:52:06;0.55;;;0.55;;
12141;SDS011;6134;59.284;18.022;2022-07-29T14:54:35;1.45;;;0.70;;
12141;SDS011;6134;59.284;18.022;2022-07-29T14:57:05;0.60;;;0.60;;
12141;SDS011;6134;59.284;18.022;2022-07-29T14:59:33;0.60;;;0.60;;
12141;SDS011;6134;59.284;18.022;2022-07-29T15:02:02;0.60;;;0.60;;
12141;SDS011;6134;59.284;18.022;2022-07-29T15:04:30;0.80;;;0.80;;
12141;SDS011;6134;59.284;18.022;2022-07-29T15:07:00;0.80;;;0.73;;
12141;SDS011;6134;59.284;18.022;2022-07-29T15:09:29;0.80;;;0.73;;
12141;SDS011;6134;59.284;18.022;2022-07-29T15:12:01;0.75;;;0.75;;
12141;SDS011;6134;59.284;18.022;2022-07-29T15:14:30;1.77;;;0.80;;
12141;SDS011;6134;59.284;18.022;2022-07-29T15:16:59;0.75;;;0.60;;
12141;SDS011;6134;59.284;18.022;2022-07-29T15:19:29;0.70;;;0.70;;
12141;SDS011;6134;59.284;18.022;2022-07-29T15:21:59;0.60;;;0.60;;
12141;SDS011;6134;59.284;18.022;2022-07-29T15:24:29;0.60;;;0.60;;
12141;SDS011;6134;59.284;18.022;2022-07-29T15:26:57;0.70;;;0.70;;
12141;SDS011;6134;59.284;18.022;2022-07-29T15:29:27;0.63;;;0.63;;
12141;SDS011;6134;59.284;18.022;2022-07-29T15:31:55;0.70;;;0.70;;